Time;durP1;ratioP1;P1;durP2;ratioP2;P2;SDS_P1;SDS_P2;PMS_P1;PMS_P2;Temp;Humidity;BMP_temperature;BMP_pressure;BME280_temperature;BME280_humidity;BME280_pressure;Samples;Min_cycle;Max_cycle;Signal;HPM_P1;HPM_P2
2023/10/08 00:00:46;;;;;;;7.08;5.08;;;16.80;99.90;;;;;;1950946;73;21098;-81
2023/10/08 00:03:40;;;;;;;6.35;4.67;;;16.70;99.90;;;;;;1950646;73;21059;-81
2023/10/08 00:06:33;;;;;;;6.42;5.15;;;16.60;99.90;;;;;;1950709;73;21613;-81
2023/10/08 00:09:24;;;;;;;9.93;4.80;;;16.50;99.90;;;;;;1950760;73;21172;-81
2023/10/08 00:12:17;;;;;;;8.35;4.92;;;16.50;99.90;;;;;;1950597;73;21584;-81
2023/10/08 00:15:10;;;;;;;7.87;5.40;;;16.50;99.90;;;;;;1950704;73;21617;-81
2023/10/08 00:18:02;;;;;;;8.03;5.45;;;16.50;99.90;;;;;;1950737;73;21573;-82
2023/10/08 00:20:58;;;;;;;6.28;4.90;;;16.50;99.90;;;;;;1948415;73;21168;-82
2023/10/08 00:23:52;;;;;;;9.43;5.20;;;16.50;99.90;;;;;;1937708;74;21095;-82
2023/10/08 00:26:44;;;;;;;7.00;5.40;;;16.40;99.90;;;;;;1937675;74;21141;-81
2023/10/08 00:29:43;;;;;;;7.28;4.87;;;16.40;99.90;;;;;;1950593;73;21141;-81
2023/10/08 00:32:31;;;;;;;7.50;5.28;;;16.40;99.90;;;;;;1949997;73;21098;-83
2023/10/08 00:35:24;;;;;;;8.78;5.35;;;16.30;99.90;;;;;;1937501;74;21095;-82
2023/10/08 00:38:20;;;;;;;6.65;4.80;;;16.30;99.90;;;;;;1915626;74;21094;-81
2023/10/08 00:41:09;;;;;;;6.17;4.97;;;16.30;99.90;;;;;;1937613;74;21095;-81
2023/10/08 00:44:00;;;;;;;7.95;5.22;;;16.30;99.90;;;;;;1950299;73;21048;-81
2023/10/08 00:46:55;;;;;;;7.53;4.90;;;16.30;99.90;;;;;;1937524;74;21102;-81
2023/10/08 00:49:54;;;;;;;6.90;4.75;;;16.30;99.90;;;;;;1937190;74;21047;-81
2023/10/08 00:52:45;;;;;;;7.70;5.00;;;16.30;99.90;;;;;;1937496;74;21130;-81
2023/10/08 00:55:36;;;;;;;7.05;4.83;;;16.20;99.90;;;;;;1937524;74;21602;-81
2023/10/08 00:58:27;;;;;;;6.72;4.80;;;16.10;99.90;;;;;;1950092;73;21134;-81
2023/10/08 01:01:21;;;;;;;8.65;5.33;;;16.00;99.90;;;;;;1937490;74;21331;-82
2023/10/08 01:04:17;;;;;;;8.43;4.97;;;16.00;99.90;;;;;;1950132;73;21519;-81
2023/10/08 01:07:12;;;;;;;9.33;5.10;;;15.90;99.90;;;;;;1937370;74;21099;-82
2023/10/08 01:10:10;;;;;;;9.15;4.95;;;15.80;99.90;;;;;;1950287;73;21368;-81
2023/10/08 01:13:05;;;;;;;6.70;4.72;;;15.80;99.90;;;;;;1937319;74;21095;-81
2023/10/08 01:15:58;;;;;;;8.25;5.35;;;15.70;99.90;;;;;;1950272;73;21208;-81
2023/10/08 01:18:54;;;;;;;6.20;5.03;;;15.70;99.90;;;;;;1937159;74;21118;-81
2023/10/08 01:21:44;;;;;;;7.08;4.70;;;15.70;99.90;;;;;;1939040;73;21125;-81
2023/10/08 01:24:36;;;;;;;6.87;4.10;;;15.80;99.90;;;;;;1949941;73;21133;-81
2023/10/08 01:27:34;;;;;;;6.62;4.80;;;15.80;99.90;;;;;;1949918;73;21201;-81
2023/10/08 01:30:26;;;;;;;8.45;6.15;;;15.80;99.90;;;;;;1950484;73;21118;-82
2023/10/08 01:33:20;;;;;;;10.08;5.75;;;15.80;99.90;;;;;;1950569;73;21086;-82
2023/10/08 01:36:12;;;;;;;7.50;6.05;;;15.80;99.90;;;;;;1950399;73;21042;-82
2023/10/08 01:39:03;;;;;;;7.65;6.17;;;15.70;99.90;;;;;;1950457;73;21166;-82
2023/10/08 01:41:54;;;;;;;8.95;6.03;;;15.80;99.90;;;;;;1950423;73;21530;-82
2023/10/08 01:44:48;;;;;;;8.75;5.67;;;15.80;99.90;;;;;;1950466;73;21091;-82
2023/10/08 01:47:41;;;;;;;8.35;5.03;;;15.70;99.90;;;;;;1950680;73;21546;-81
2023/10/08 01:50:36;;;;;;;7.42;5.20;;;15.70;99.90;;;;;;1950548;73;21160;-81
2023/10/08 01:53:28;;;;;;;7.05;4.80;;;15.60;99.90;;;;;;1950487;73;21082;-82
2023/10/08 01:56:19;;;;;;;9.30;5.22;;;15.60;99.90;;;;;;1950607;73;21091;-81
2023/10/08 01:59:13;;;;;;;11.22;6.40;;;15.70;99.90;;;;;;1950326;73;21203;-81
2023/10/08 02:02:05;;;;;;;13.00;8.15;;;15.60;99.90;;;;;;1950502;73;21110;-81
2023/10/08 02:04:57;;;;;;;12.93;7.25;;;15.60;99.90;;;;;;1950510;73;21160;-81
2023/10/08 02:07:49;;;;;;;12.13;6.37;;;15.50;99.90;;;;;;1950598;73;21201;-81
2023/10/08 02:10:42;;;;;;;10.35;6.85;;;15.50;99.90;;;;;;1950686;73;21107;-81
2023/10/08 02:13:36;;;;;;;8.15;5.90;;;15.50;99.90;;;;;;1950320;73;21099;-81
2023/10/08 02:16:28;;;;;;;10.53;7.25;;;15.40;99.90;;;;;;1950136;73;21164;-82
2023/10/08 02:19:26;;;;;;;8.03;6.03;;;15.40;99.90;;;;;;1950501;73;21109;-82
2023/10/08 02:22:13;;;;;;;8.03;5.65;;;15.40;99.90;;;;;;1950922;73;21183;-83
2023/10/08 02:25:05;;;;;;;8.30;5.58;;;15.40;99.90;;;;;;1950614;73;21625;-83
2023/10/08 02:27:57;;;;;;;7.83;4.55;;;15.40;99.90;;;;;;1950566;73;21095;-82
2023/10/08 02:30:48;;;;;;;8.40;4.65;;;15.40;99.90;;;;;;1950678;73;21160;-83
2023/10/08 02:33:40;;;;;;;7.12;4.90;;;15.50;99.90;;;;;;1950465;73;21090;-83
2023/10/08 02:36:32;;;;;;;6.10;4.58;;;15.50;99.90;;;;;;1950775;73;21616;-83
2023/10/08 02:39:25;;;;;;;7.40;4.80;;;15.50;99.90;;;;;;1950674;73;21087;-82
2023/10/08 02:42:16;;;;;;;5.50;4.50;;;15.40;99.90;;;;;;1950507;73;21067;-82
2023/10/08 02:45:13;;;;;;;6.42;4.60;;;15.40;99.90;;;;;;1950301;73;21090;-84
2023/10/08 02:48:02;;;;;;;7.92;4.45;;;15.40;99.90;;;;;;1950090;73;21582;-81
2023/10/08 02:50:54;;;;;;;7.15;5.03;;;15.40;99.90;;;;;;1950337;73;21329;-83
2023/10/08 02:53:46;;;;;;;8.75;5.00;;;15.40;99.90;;;;;;1950468;73;21208;-83
2023/10/08 02:56:38;;;;;;;6.62;4.42;;;15.40;99.90;;;;;;1950541;73;21585;-82
2023/10/08 02:59:39;;;;;;;6.60;4.58;;;15.40;99.90;;;;;;1950673;73;21518;-81
2023/10/08 03:02:27;;;;;;;8.48;4.55;;;15.30;99.90;;;;;;1950562;73;21055;-81
2023/10/08 03:05:19;;;;;;;5.50;4.50;;;15.30;99.90;;;;;;1950508;73;21087;-82
2023/10/08 03:08:11;;;;;;;7.47;4.45;;;15.30;99.90;;;;;;1950514;73;21058;-82
2023/10/08 03:11:03;;;;;;;5.85;4.30;;;15.20;99.90;;;;;;1950650;73;21138;-82
2023/10/08 03:13:56;;;;;;;5.95;4.62;;;15.20;99.90;;;;;;1950496;73;21806;-81
2023/10/08 03:16:48;;;;;;;6.97;4.25;;;15.20;99.90;;;;;;1950835;73;21116;-82
2023/10/08 03:19:44;;;;;;;5.70;4.62;;;15.10;99.90;;;;;;1950199;73;21099;-82
2023/10/08 03:22:34;;;;;;;6.12;4.47;;;15.10;99.90;;;;;;1950445;73;21099;-82
2023/10/08 03:25:26;;;;;;;6.22;4.45;;;15.10;99.90;;;;;;1936297;73;21142;-82
2023/10/08 03:28:21;;;;;;;6.35;4.50;;;15.10;99.90;;;;;;1934828;74;21452;-82
2023/10/08 03:31:16;;;;;;;6.10;4.55;;;15.00;99.90;;;;;;1934870;74;21059;-82
2023/10/08 03:34:12;;;;;;;6.28;4.75;;;14.90;99.90;;;;;;1934974;74;21507;-81
2023/10/08 03:37:06;;;;;;;7.30;4.92;;;15.00;99.90;;;;;;1934987;74;21056;-81
2023/10/08 03:40:22;;;;;;;7.72;5.40;;;15.00;99.90;;;;;;1934912;74;21131;-82
2023/10/08 03:42:55;;;;;;;8.80;5.08;;;15.00;99.90;;;;;;1935119;74;21169;-83
2023/10/08 03:45:53;;;;;;;9.90;5.12;;;15.00;99.90;;;;;;1934479;74;21122;-83
2023/10/08 03:48:45;;;;;;;6.78;4.80;;;15.00;99.90;;;;;;1935259;74;21180;-82
2023/10/08 03:51:39;;;;;;;8.18;5.17;;;14.90;99.90;;;;;;1935163;74;21103;-82
2023/10/08 03:54:34;;;;;;;6.65;4.95;;;14.90;99.90;;;;;;1935307;74;21127;-82
2023/10/08 03:57:40;;;;;;;7.25;5.37;;;14.90;99.90;;;;;;1935216;74;21087;-82
2023/10/08 04:00:28;;;;;;;8.25;5.67;;;14.90;99.90;;;;;;1935093;74;21217;-82
2023/10/08 04:03:11;;;;;;;7.65;5.20;;;14.80;99.90;;;;;;1935197;74;21104;-82
2023/10/08 04:06:14;;;;;;;9.25;6.33;;;14.80;99.90;;;;;;1926242;74;21653;-82
2023/10/08 04:09:11;;;;;;;8.43;5.50;;;14.80;99.90;;;;;;1917553;75;21195;-81
2023/10/08 04:12:03;;;;;;;7.70;5.03;;;14.70;99.90;;;;;;1918074;75;21245;-81
2023/10/08 04:14:50;;;;;;;8.33;4.83;;;14.70;99.90;;;;;;1917968;75;21150;-82
2023/10/08 04:17:44;;;;;;;6.12;5.12;;;14.60;99.90;;;;;;1917835;75;21139;-82
2023/10/08 04:20:38;;;;;;;10.58;6.03;;;14.50;99.90;;;;;;1917951;75;21063;-82
2023/10/08 04:23:29;;;;;;;8.58;4.85;;;14.50;99.90;;;;;;1917619;75;21110;-83
2023/10/08 04:26:23;;;;;;;7.95;5.33;;;14.50;99.90;;;;;;1908550;75;21244;-82
2023/10/08 04:29:16;;;;;;;7.10;4.97;;;14.40;99.90;;;;;;1907994;75;21160;-82
2023/10/08 04:32:11;;;;;;;7.62;5.03;;;14.40;99.90;;;;;;1907934;75;21106;-82
2023/10/08 04:35:07;;;;;;;7.47;5.17;;;14.40;99.90;;;;;;1919890;75;21159;-82
2023/10/08 04:37:55;;;;;;;9.20;5.35;;;14.40;99.90;;;;;;1907966;75;21098;-83
2023/10/08 04:40:51;;;;;;;7.22;6.12;;;14.30;99.90;;;;;;1907845;75;21126;-82
2023/10/08 04:43:43;;;;;;;8.43;6.40;;;14.30;99.90;;;;;;1907784;75;21149;-82
2023/10/08 04:46:46;;;;;;;11.03;7.75;;;14.40;99.90;;;;;;1920410;75;21114;-82
2023/10/08 04:49:37;;;;;;;10.68;7.62;;;14.30;99.90;;;;;;1907950;75;21558;-82
2023/10/08 04:52:27;;;;;;;13.10;8.50;;;14.30;99.90;;;;;;1920544;75;21142;-82
2023/10/08 04:55:28;;;;;;;10.58;8.28;;;14.20;99.90;;;;;;1920310;75;21557;-82
2023/10/08 04:58:21;;;;;;;13.03;7.15;;;14.10;99.90;;;;;;1907949;75;21099;-82
2023/10/08 05:01:18;;;;;;;8.70;6.75;;;14.20;99.90;;;;;;1920206;75;21645;-82
2023/10/08 05:04:26;;;;;;;8.10;5.65;;;14.20;99.90;;;;;;1919929;75;21220;-82
2023/10/08 05:07:21;;;;;;;8.23;5.58;;;14.20;99.90;;;;;;1916159;75;21145;-82
2023/10/08 05:10:32;;;;;;;7.37;5.55;;;14.20;99.90;;;;;;1915760;75;21212;-83
2023/10/08 05:13:16;;;;;;;8.68;5.30;;;14.20;99.90;;;;;;1903950;75;21126;-82
2023/10/08 05:16:29;;;;;;;7.20;5.15;;;14.10;99.90;;;;;;1903739;75;21177;-83
2023/10/08 05:19:37;;;;;;;9.05;5.22;;;14.10;99.90;;;;;;1916089;75;21556;-83
2023/10/08 05:22:17;;;;;;;8.03;5.60;;;14.10;99.90;;;;;;1903314;75;21159;-82
2023/10/08 05:25:07;;;;;;;8.95;5.00;;;14.10;99.90;;;;;;1915699;74;21188;-82
2023/10/08 05:28:08;;;;;;;10.35;5.20;;;14.10;99.90;;;;;;1916577;75;21093;-82
2023/10/08 05:30:55;;;;;;;26.97;6.22;;;14.00;99.90;;;;;;1916673;75;21096;-83
2023/10/08 05:34:14;;;;;;;8.65;5.90;;;14.00;99.90;;;;;;1916492;75;21147;-82
2023/10/08 05:37:10;;;;;;;6.80;5.25;;;14.10;99.90;;;;;;1916522;75;21110;-82
2023/10/08 05:39:46;;;;;;;6.30;4.85;;;14.00;99.90;;;;;;1916706;75;21213;-82
2023/10/08 05:42:45;;;;;;;8.95;5.50;;;14.10;99.90;;;;;;1916635;75;21059;-82
2023/10/08 05:45:33;;;;;;;7.67;5.60;;;14.00;99.90;;;;;;1916616;75;21212;-82
2023/10/08 05:48:27;;;;;;;7.15;5.78;;;14.00;99.90;;;;;;1916656;75;21546;-82
2023/10/08 05:51:33;;;;;;;8.43;4.85;;;14.00;99.90;;;;;;1916465;75;21152;-82
2023/10/08 05:54:35;;;;;;;7.78;5.65;;;14.00;99.90;;;;;;1916814;75;21181;-83
2023/10/08 05:57:38;;;;;;;7.22;5.08;;;14.00;99.90;;;;;;1916658;75;21117;-82
2023/10/08 06:00:46;;;;;;;6.87;5.08;;;14.00;99.90;;;;;;1916622;75;21086;-82
2023/10/08 06:03:32;;;;;;;6.47;5.12;;;13.90;99.90;;;;;;1916338;75;21145;-82
2023/10/08 06:06:36;;;;;;;9.55;5.28;;;13.90;99.90;;;;;;1916506;75;21110;-82
2023/10/08 06:09:35;;;;;;;6.72;5.10;;;13.90;99.90;;;;;;1916630;75;21134;-82
2023/10/08 06:12:29;;;;;;;8.05;4.90;;;13.90;99.90;;;;;;1916755;75;21132;-82
2023/10/08 06:15:13;;;;;;;7.62;5.37;;;13.90;99.90;;;;;;1916905;75;21145;-82
2023/10/08 06:18:05;;;;;;;8.25;4.95;;;13.90;99.90;;;;;;1916170;75;21118;-82
2023/10/08 06:20:58;;;;;;;6.42;5.28;;;14.00;99.90;;;;;;1916369;75;21921;-82
2023/10/08 06:23:53;;;;;;;7.12;4.97;;;14.00;99.90;;;;;;1916474;75;21238;-82
2023/10/08 06:26:48;;;;;;;7.30;5.08;;;14.00;99.90;;;;;;1914206;74;21133;-83
2023/10/08 06:29:44;;;;;;;7.40;5.20;;;13.90;99.90;;;;;;1911053;75;21102;-85
2023/10/08 06:32:30;;;;;;;6.67;4.80;;;13.90;99.90;;;;;;1911318;75;21148;-83
2023/10/08 06:35:25;;;;;;;7.80;5.30;;;14.00;99.90;;;;;;1910961;75;21051;-82
2023/10/08 06:38:18;;;;;;;8.60;5.33;;;13.90;99.90;;;;;;1910696;75;21143;-82
2023/10/08 06:41:10;;;;;;;7.33;4.85;;;13.90;99.90;;;;;;1910731;75;21172;-82
2023/10/08 06:44:03;;;;;;;7.70;4.83;;;14.00;99.90;;;;;;1910834;75;21113;-82
2023/10/08 06:46:58;;;;;;;8.05;4.72;;;14.00;99.90;;;;;;1910838;75;21102;-82
2023/10/08 06:49:51;;;;;;;7.67;5.20;;;14.10;99.90;;;;;;1910754;75;21155;-83
2023/10/08 06:52:43;;;;;;;9.45;5.17;;;14.10;99.90;;;;;;1910539;75;21074;-84
2023/10/08 06:55:37;;;;;;;7.25;5.12;;;14.30;99.90;;;;;;1910719;75;21114;-82
2023/10/08 06:58:31;;;;;;;17.57;6.25;;;14.30;99.90;;;;;;1910317;75;21155;-82
2023/10/08 07:01:24;;;;;;;7.72;5.17;;;14.30;99.90;;;;;;1910654;75;21146;-83
2023/10/08 07:04:15;;;;;;;8.10;4.87;;;14.40;99.90;;;;;;1910963;75;21199;-83
2023/10/08 07:07:09;;;;;;;6.75;4.55;;;14.50;99.90;;;;;;1910734;75;21102;-83
2023/10/08 07:10:01;;;;;;;6.03;4.17;;;14.60;99.90;;;;;;1910777;75;21704;-83
2023/10/08 07:12:53;;;;;;;6.47;4.67;;;14.60;99.90;;;;;;1910683;75;21067;-83
2023/10/08 07:15:46;;;;;;;6.22;4.65;;;14.60;99.90;;;;;;1910647;75;21134;-82
2023/10/08 07:18:38;;;;;;;11.20;5.83;;;14.60;99.90;;;;;;1910831;75;21180;-83
2023/10/08 07:21:38;;;;;;;7.78;4.78;;;14.70;99.90;;;;;;1910872;75;21082;-82
2023/10/08 07:24:22;;;;;;;7.75;5.00;;;14.80;99.90;;;;;;1910926;75;21495;-82
2023/10/08 07:27:13;;;;;;;8.98;5.22;;;14.90;99.90;;;;;;1911945;75;21215;-82
2023/10/08 07:30:10;;;;;;;7.92;5.62;;;15.00;99.90;;;;;;1916477;75;21105;-82
2023/10/08 07:33:03;;;;;;;8.18;5.28;;;15.00;99.90;;;;;;1916292;75;21154;-82
2023/10/08 07:35:58;;;;;;;7.35;5.55;;;15.10;99.90;;;;;;1916452;75;21106;-82
2023/10/08 07:38:50;;;;;;;12.68;5.42;;;15.10;99.90;;;;;;1916366;75;21373;-83
2023/10/08 07:41:44;;;;;;;9.83;5.47;;;15.20;99.90;;;;;;1916309;75;21538;-82
2023/10/08 07:44:36;;;;;;;8.38;5.30;;;15.30;99.90;;;;;;1916126;75;21589;-82
2023/10/08 07:47:28;;;;;;;7.35;4.85;;;15.30;99.90;;;;;;1916462;75;21181;-82
2023/10/08 07:50:19;;;;;;;8.15;4.95;;;15.50;99.90;;;;;;1916175;75;21098;-82
2023/10/08 07:53:17;;;;;;;6.20;4.60;;;15.60;99.90;;;;;;1916470;75;21106;-82
2023/10/08 07:56:10;;;;;;;7.10;4.70;;;15.60;99.90;;;;;;1916528;75;21140;-82
2023/10/08 07:59:08;;;;;;;9.15;5.40;;;15.70;99.90;;;;;;1916613;75;21544;-82
2023/10/08 08:01:55;;;;;;;6.97;4.55;;;15.80;99.90;;;;;;1916497;75;21121;-82
2023/10/08 08:04:50;;;;;;;7.30;4.50;;;15.80;99.90;;;;;;1916677;75;21135;-82
2023/10/08 08:07:42;;;;;;;8.70;5.00;;;15.90;99.90;;;;;;1916532;75;21171;-82
2023/10/08 08:10:36;;;;;;;7.78;4.80;;;16.00;99.90;;;;;;1916312;75;21232;-82
2023/10/08 08:13:28;;;;;;;5.67;4.22;;;16.10;99.90;;;;;;1916406;75;21102;-84
2023/10/08 08:16:20;;;;;;;5.95;4.53;;;16.20;99.90;;;;;;1916631;75;21102;-82
2023/10/08 08:19:15;;;;;;;7.75;4.30;;;16.20;99.90;;;;;;1916124;75;21103;-82
2023/10/08 08:22:05;;;;;;;6.50;4.70;;;16.30;99.90;;;;;;1916295;75;21098;-82
2023/10/08 08:25:05;;;;;;;7.45;4.55;;;16.40;99.90;;;;;;1916259;75;21062;-82
2023/10/08 08:27:52;;;;;;;6.62;5.10;;;16.50;99.90;;;;;;1917034;74;21175;-83
2023/10/08 08:30:46;;;;;;;6.00;4.53;;;16.50;99.90;;;;;;1925875;74;21150;-83
2023/10/08 08:33:52;;;;;;;6.53;4.50;;;16.60;99.90;;;;;;1926004;74;21625;-84
2023/10/08 08:36:54;;;;;;;7.50;4.87;;;16.70;99.90;;;;;;1926040;74;21121;-83
2023/10/08 08:39:46;;;;;;;7.15;4.40;;;16.80;99.90;;;;;;1926104;74;21137;-82
2023/10/08 08:42:38;;;;;;;8.15;4.83;;;16.90;99.90;;;;;;1925998;74;21123;-82
2023/10/08 08:45:33;;;;;;;6.33;4.40;;;17.00;99.90;;;;;;1925737;74;21130;-82
2023/10/08 08:48:24;;;;;;;7.90;4.75;;;17.10;99.90;;;;;;1926005;74;21113;-82
2023/10/08 08:51:17;;;;;;;5.37;3.83;;;17.20;99.90;;;;;;1925760;74;21065;-82
2023/10/08 08:54:09;;;;;;;5.53;4.45;;;17.30;99.90;;;;;;1925885;74;21132;-82
2023/10/08 08:57:04;;;;;;;7.90;4.50;;;17.40;99.90;;;;;;1926171;74;21140;-81
2023/10/08 08:59:57;;;;;;;5.42;4.22;;;17.50;99.90;;;;;;1926027;74;21125;-82
2023/10/08 09:02:49;;;;;;;6.83;4.10;;;17.60;99.90;;;;;;1925825;74;21089;-82
2023/10/08 09:05:42;;;;;;;6.67;4.40;;;17.70;99.90;;;;;;1925690;74;21204;-82
2023/10/08 09:08:41;;;;;;;5.75;4.30;;;17.80;99.90;;;;;;1925674;74;21073;-82
2023/10/08 09:11:30;;;;;;;7.37;3.90;;;17.90;99.90;;;;;;1925930;74;21116;-82
2023/10/08 09:14:25;;;;;;;6.53;4.03;;;17.90;99.90;;;;;;1925795;74;21208;-82
2023/10/08 09:20:06;;;;;;;5.35;4.30;;;18.10;99.90;;;;;;1975497;72;22170;-82
2023/10/08 09:23:11;;;;;;;6.92;4.37;;;18.20;99.90;;;;;;1950438;73;21105;-82
2023/10/08 09:26:03;;;;;;;7.28;3.92;;;18.30;99.90;;;;;;1950918;73;21050;-82
2023/10/08 09:28:54;;;;;;;6.70;4.58;;;18.40;99.90;;;;;;1951028;73;21155;-82
2023/10/08 09:31:55;;;;;;;12.37;5.45;;;18.40;99.90;;;;;;1950891;73;21107;-82
2023/10/08 09:34:47;;;;;;;7.08;4.78;;;18.50;99.90;;;;;;1950482;73;21587;-82
2023/10/08 09:37:40;;;;;;;7.35;4.62;;;18.60;99.90;;;;;;1950842;73;21102;-82
2023/10/08 09:40:31;;;;;;;6.87;4.17;;;18.70;99.90;;;;;;1950679;73;21187;-82
2023/10/08 09:43:25;;;;;;;5.33;4.00;;;18.80;99.90;;;;;;1950585;73;21550;-82
2023/10/08 09:46:19;;;;;;;7.05;4.00;;;18.90;99.90;;;;;;1950684;73;21106;-82
2023/10/08 09:49:14;;;;;;;7.37;4.22;;;19.00;99.90;;;;;;1950746;73;21086;-82
2023/10/08 09:52:07;;;;;;;6.22;4.10;;;19.10;99.90;;;;;;1950683;73;21110;-82
2023/10/08 09:55:03;;;;;;;8.70;4.92;;;19.20;99.90;;;;;;1950789;73;21441;-82
2023/10/08 09:57:55;;;;;;;6.42;4.50;;;19.40;99.90;;;;;;1950426;73;21047;-82
2023/10/08 10:00:48;;;;;;;7.62;4.28;;;19.40;99.90;;;;;;1950271;73;21156;-82
2023/10/08 10:03:42;;;;;;;7.00;4.28;;;19.50;99.90;;;;;;1950309;73;21138;-82
2023/10/08 10:06:36;;;;;;;6.15;4.37;;;19.60;99.90;;;;;;1950348;73;21110;-82
2023/10/08 10:09:27;;;;;;;5.28;4.22;;;19.70;99.90;;;;;;1950047;73;21161;-82
2023/10/08 10:12:25;;;;;;;6.67;4.47;;;19.80;99.90;;;;;;1950132;73;21145;-82
2023/10/08 10:15:17;;;;;;;6.33;4.17;;;19.90;99.90;;;;;;1950921;73;21114;-82
2023/10/08 10:18:15;;;;;;;6.22;4.30;;;19.90;99.90;;;;;;1950583;73;21110;-82
2023/10/08 10:21:30;;;;;;;6.05;4.42;;;20.00;99.90;;;;;;1950673;73;21113;-82
2023/10/08 10:24:32;;;;;;;6.72;3.70;;;20.00;99.90;;;;;;1950830;73;21549;-81
2023/10/08 10:27:24;;;;;;;6.50;4.33;;;20.10;99.90;;;;;;1950967;73;21123;-81
2023/10/08 10:30:18;;;;;;;6.25;4.47;;;20.20;99.90;;;;;;1950556;73;21596;-82
2023/10/08 10:33:10;;;;;;;7.97;4.45;;;20.30;99.90;;;;;;1950126;73;21111;-82
2023/10/08 10:36:05;;;;;;;7.65;4.72;;;20.40;99.90;;;;;;1950203;73;21180;-82
2023/10/08 10:38:58;;;;;;;7.75;4.95;;;20.50;99.90;;;;;;1950415;73;21127;-82
2023/10/08 10:41:51;;;;;;;6.65;4.05;;;20.50;99.90;;;;;;1950257;73;21143;-82
2023/10/08 10:44:42;;;;;;;6.35;4.30;;;20.60;99.90;;;;;;1950216;73;21131;-82
2023/10/08 10:47:43;;;;;;;8.68;4.87;;;20.70;99.90;;;;;;1950364;73;21106;-82
2023/10/08 10:50:39;;;;;;;8.93;5.60;;;20.80;99.90;;;;;;1950018;73;21090;-82
2023/10/08 10:53:30;;;;;;;7.28;4.65;;;20.90;99.90;;;;;;1950038;73;21125;-81
2023/10/08 10:56:29;;;;;;;7.87;4.60;;;21.00;99.90;;;;;;1950146;73;21098;-82
2023/10/08 10:59:19;;;;;;;6.65;4.72;;;21.00;99.90;;;;;;1949981;73;21204;-81
2023/10/08 11:02:20;;;;;;;6.92;4.47;;;21.10;99.90;;;;;;1949717;73;21176;-81
2023/10/08 11:05:19;;;;;;;7.45;4.03;;;21.20;99.90;;;;;;1947702;73;21168;-81
2023/10/08 11:08:06;;;;;;;7.28;4.58;;;21.20;99.90;;;;;;1920516;75;21114;-81
2023/10/08 11:10:59;;;;;;;5.80;4.78;;;21.30;99.90;;;;;;1920352;75;21062;-82
2023/10/08 11:13:54;;;;;;;5.72;4.15;;;21.30;99.90;;;;;;1920359;75;21138;-82
2023/10/08 11:16:48;;;;;;;6.40;3.75;;;21.30;99.90;;;;;;1920382;75;21149;-81
2023/10/08 11:19:42;;;;;;;7.05;3.87;;;21.50;99.90;;;;;;1919263;75;21098;-81
2023/10/08 11:22:44;;;;;;;5.92;4.22;;;21.60;99.90;;;;;;1911953;75;21667;-81
2023/10/08 11:25:36;;;;;;;8.08;4.45;;;21.70;99.90;;;;;;1911995;75;21099;-81
2023/10/08 11:28:29;;;;;;;5.08;4.00;;;21.80;99.90;;;;;;1911991;75;21164;-81
2023/10/08 11:31:21;;;;;;;7.92;4.42;;;21.80;99.90;;;;;;1912252;75;21151;-82
2023/10/08 11:34:13;;;;;;;6.75;4.97;;;21.90;99.90;;;;;;1911919;75;21110;-82
2023/10/08 11:37:07;;;;;;;5.92;3.95;;;22.10;99.90;;;;;;1911639;75;21187;-81
2023/10/08 11:39:59;;;;;;;5.83;4.25;;;22.20;99.90;;;;;;1912093;75;21078;-82
2023/10/08 11:42:51;;;;;;;9.88;4.30;;;22.30;99.90;;;;;;1911639;75;21176;-81
2023/10/08 11:45:48;;;;;;;6.85;4.62;;;22.30;99.90;;;;;;1911796;75;21193;-82
2023/10/08 11:48:38;;;;;;;6.00;4.33;;;22.30;99.90;;;;;;1912013;75;21142;-81
2023/10/08 11:51:27;;;;;;;7.37;4.10;;;22.40;99.90;;;;;;1911998;75;21133;-82
2023/10/08 11:54:20;;;;;;;8.48;4.47;;;22.50;99.90;;;;;;1911967;75;21470;-82
2023/10/08 11:57:11;;;;;;;7.20;4.55;;;22.50;99.90;;;;;;1912055;75;21179;-82
2023/10/08 12:00:18;;;;;;;5.12;4.03;;;22.70;99.90;;;;;;1911899;75;21142;-82
2023/10/08 12:03:01;;;;;;;6.15;4.30;;;22.80;99.90;;;;;;1911986;75;21317;-81
2023/10/08 12:05:59;;;;;;;6.97;4.22;;;22.80;99.90;;;;;;1912038;75;21088;-81
2023/10/08 12:08:47;;;;;;;6.22;3.92;;;22.70;99.90;;;;;;1911981;75;21109;-82
2023/10/08 12:11:39;;;;;;;9.30;4.20;;;22.80;99.90;;;;;;1911794;75;21091;-82
2023/10/08 12:14:31;;;;;;;7.17;4.25;;;22.90;99.90;;;;;;1911514;75;21107;-81
2023/10/08 12:17:29;;;;;;;6.05;4.25;;;23.00;99.90;;;;;;1911744;75;21176;-81
2023/10/08 12:20:23;;;;;;;6.65;3.87;;;23.10;99.90;;;;;;1911868;75;21626;-81
2023/10/08 12:23:24;;;;;;;7.65;4.15;;;23.20;99.90;;;;;;1912053;75;21111;-81
2023/10/08 12:26:08;;;;;;;6.75;4.17;;;23.20;99.90;;;;;;1911305;75;21063;-81
2023/10/08 12:29:00;;;;;;;6.58;4.15;;;23.20;99.90;;;;;;1911240;75;21114;-81
2023/10/08 12:31:53;;;;;;;6.58;4.17;;;23.40;99.90;;;;;;1911428;75;21102;-81
2023/10/08 12:34:47;;;;;;;6.28;4.30;;;23.40;99.90;;;;;;1911728;75;21150;-81
2023/10/08 12:37:38;;;;;;;7.17;4.28;;;23.50;99.90;;;;;;1911737;75;21109;-81
2023/10/08 12:40:41;;;;;;;8.00;4.50;;;23.50;99.90;;;;;;1911324;75;21118;-81
2023/10/08 12:43:26;;;;;;;7.22;4.60;;;23.50;99.90;;;;;;1912016;75;21142;-81
2023/10/08 12:46:23;;;;;;;5.78;4.00;;;23.60;99.90;;;;;;1911948;75;21110;-81
2023/10/08 12:49:14;;;;;;;5.42;4.20;;;23.70;99.90;;;;;;1911770;75;21152;-81
2023/10/08 12:52:08;;;;;;;5.90;4.20;;;23.80;99.90;;;;;;1911792;75;21114;-81
2023/10/08 12:55:03;;;;;;;6.30;3.90;;;23.80;99.90;;;;;;1911703;75;21108;-81
2023/10/08 12:57:55;;;;;;;5.67;4.03;;;23.90;99.90;;;;;;1911358;75;21171;-81
2023/10/08 13:00:49;;;;;;;5.25;3.95;;;24.00;99.90;;;;;;1911296;75;21122;-81
2023/10/08 13:03:41;;;;;;;6.83;4.60;;;24.10;99.90;;;;;;1911968;75;21107;-81
2023/10/08 13:06:33;;;;;;;4.78;4.03;;;24.10;99.90;;;;;;1911867;75;21101;-81
2023/10/08 13:09:24;;;;;;;5.25;4.25;;;24.10;99.90;;;;;;1911666;75;21217;-81
2023/10/08 13:12:16;;;;;;;7.15;3.95;;;24.20;99.90;;;;;;1911921;75;21123;-81
2023/10/08 13:15:09;;;;;;;4.90;3.90;;;24.30;99.90;;;;;;1911826;75;21701;-81
2023/10/08 13:18:03;;;;;;;6.30;4.30;;;24.40;99.90;;;;;;1911806;75;21106;-81
2023/10/08 13:20:57;;;;;;;7.20;4.37;;;24.40;99.90;;;;;;1911904;75;21063;-81
2023/10/08 13:23:49;;;;;;;9.78;4.30;;;24.50;99.90;;;;;;1852238;77;21554;-81
2023/10/08 13:26:42;;;;;;;5.17;4.17;;;24.60;99.90;;;;;;1885836;76;21221;-81
2023/10/08 13:29:33;;;;;;;7.12;4.45;;;24.70;99.90;;;;;;1895439;76;21117;-81
2023/10/08 13:32:25;;;;;;;7.92;4.40;;;24.80;99.90;;;;;;1895774;76;21108;-81
2023/10/08 13:35:16;;;;;;;6.05;4.17;;;24.90;99.90;;;;;;1896238;76;21114;-81
2023/10/08 13:38:12;;;;;;;7.55;4.30;;;24.90;99.90;;;;;;1895810;76;21119;-81
2023/10/08 13:41:03;;;;;;;7.87;4.47;;;25.00;99.90;;;;;;1895854;76;21216;-81
2023/10/08 13:44:05;;;;;;;7.12;4.33;;;25.00;99.90;;;;;;1895847;76;21117;-81
2023/10/08 13:46:49;;;;;;;6.78;4.37;;;25.00;99.90;;;;;;1896043;76;21569;-81
2023/10/08 13:49:42;;;;;;;7.03;4.30;;;25.10;99.90;;;;;;1895942;76;21152;-81
2023/10/08 13:52:38;;;;;;;7.10;4.10;;;25.10;99.90;;;;;;1896006;76;21102;-81
2023/10/08 13:55:30;;;;;;;5.40;4.05;;;25.10;99.90;;;;;;1895908;76;21546;-81
2023/10/08 13:58:24;;;;;;;6.42;3.92;;;25.20;99.90;;;;;;1895867;76;21164;-81
2023/10/08 14:01:19;;;;;;;6.92;4.28;;;25.30;99.90;;;;;;1895671;76;21134;-81
2023/10/08 14:04:10;;;;;;;4.87;3.30;;;25.40;99.90;;;;;;1895819;76;21188;-81
2023/10/08 14:07:04;;;;;;;4.58;3.72;;;25.40;99.90;;;;;;1895906;76;21569;-81
2023/10/08 14:09:56;;;;;;;5.58;3.60;;;25.80;99.90;;;;;;1895977;76;21157;-82
2023/10/08 14:12:49;;;;;;;4.85;3.67;;;26.10;99.90;;;;;;1896065;76;21200;-81
2023/10/08 14:15:46;;;;;;;5.15;3.58;;;27.70;99.90;;;;;;1896124;76;21175;-81
2023/10/08 14:18:40;;;;;;;8.55;4.15;;;29.70;99.90;;;;;;1895777;76;21655;-81
2023/10/08 14:21:36;;;;;;;6.67;4.00;;;31.20;97.70;;;;;;1895957;76;21573;-81
2023/10/08 14:24:24;;;;;;;4.80;3.70;;;32.10;93.60;;;;;;1917262;75;21146;-81
2023/10/08 14:27:15;;;;;;;4.37;3.30;;;32.50;90.20;;;;;;1907497;75;21139;-81
2023/10/08 14:30:15;;;;;;;7.15;3.80;;;32.50;85.90;;;;;;1907956;75;21478;-81
2023/10/08 14:33:08;;;;;;;6.67;4.12;;;32.90;83.70;;;;;;1920028;75;21605;-82
2023/10/08 14:45:26;;;;;;;5.05;3.62;;;28.70;84.60;;;;;;1907629;75;21074;-81
2023/10/08 14:48:17;;;;;;;5.22;3.77;;;28.10;86.80;;;;;;1907531;75;21107;-81
2023/10/08 14:51:16;;;;;;;6.60;4.03;;;27.80;88.70;;;;;;1907686;75;21582;-81
2023/10/08 14:54:02;;;;;;;5.87;3.72;;;27.40;89.80;;;;;;1920233;75;21205;-81
2023/10/08 14:56:53;;;;;;;6.15;3.70;;;27.20;90.40;;;;;;1920126;75;21171;-81
2023/10/08 14:59:45;;;;;;;6.45;3.90;;;27.10;90.80;;;;;;1920054;75;21113;-81
2023/10/08 15:02:37;;;;;;;6.83;3.90;;;27.20;91.20;;;;;;1920163;75;21222;-81
2023/10/08 15:05:30;;;;;;;5.78;3.80;;;27.20;91.70;;;;;;1920282;75;21196;-81
2023/10/08 15:08:23;;;;;;;6.17;3.75;;;27.00;91.70;;;;;;1919952;75;21152;-80
2023/10/08 15:11:16;;;;;;;8.63;3.75;;;26.80;92.00;;;;;;1920213;75;21533;-81
2023/10/08 15:14:11;;;;;;;7.55;3.98;;;26.80;92.40;;;;;;1907692;75;21111;-81